createdAt,value
2023-01-26T00:01:20.987Z,7.30
2023-01-26T00:03:22.838Z,7.30
2023-01-26T00:05:24.532Z,7.30
2023-01-26T00:07:26.210Z,7.30
2023-01-26T00:09:28.173Z,7.30
2023-01-26T00:11:30.378Z,7.30
2023-01-26T00:13:32.071Z,7.30
2023-01-26T00:15:34.641Z,7.30
2023-01-26T00:17:38.230Z,7.30
2023-01-26T00:19:39.892Z,7.30
2023-01-26T00:21:41.502Z,7.30
2023-01-26T00:23:43.297Z,7.30
2023-01-26T00:25:44.915Z,7.30
2023-01-26T00:27:46.687Z,7.30
2023-01-26T00:29:48.403Z,7.30
2023-01-26T00:31:50.600Z,7.30
2023-01-26T00:33:53.214Z,7.20
2023-01-26T00:35:54.977Z,7.20
2023-01-26T00:37:56.602Z,7.30
2023-01-26T00:39:58.260Z,7.30
2023-01-26T00:42:13.840Z,7.20
2023-01-26T00:44:16.496Z,7.20
2023-01-26T00:46:18.183Z,7.20
2023-01-26T00:48:19.945Z,7.20
2023-01-26T00:50:21.631Z,7.20
2023-01-26T00:52:24.325Z,7.20
2023-01-26T00:54:26.194Z,7.20
2023-01-26T00:56:28.158Z,7.20
2023-01-26T00:58:29.909Z,7.20
2023-01-26T01:00:32.298Z,7.20
2023-01-26T01:02:33.979Z,7.20
2023-01-26T01:04:35.632Z,7.20
2023-01-26T01:06:37.291Z,7.20
2023-01-26T01:08:38.949Z,7.20
2023-01-26T01:10:41.588Z,7.20
2023-01-26T01:12:43.559Z,7.20
2023-01-26T01:14:45.225Z,7.20
2023-01-26T01:16:46.870Z,7.20
2023-01-26T01:18:48.667Z,7.10
2023-01-26T01:20:50.312Z,7.10
2023-01-26T01:22:52.119Z,7.10
2023-01-26T01:24:55.698Z,7.10
2023-01-26T01:26:57.933Z,7.10
2023-01-26T01:28:59.581Z,7.10
2023-01-26T01:31:05.345Z,7.10
2023-01-26T01:33:08.658Z,7.10
2023-01-26T01:35:10.369Z,7.10
2023-01-26T01:37:11.985Z,7.10
2023-01-26T01:39:13.822Z,7.10
2023-01-26T01:41:16.548Z,7.10
2023-01-26T01:43:18.469Z,7.10
2023-01-26T01:45:26.441Z,7.10
2023-01-26T01:47:28.153Z,7.20
2023-01-26T01:49:31.667Z,7.10
2023-01-26T01:51:38.447Z,7.10
2023-01-26T01:53:43.096Z,7.10
2023-01-26T01:55:45.569Z,7.10
2023-01-26T01:57:51.680Z,7.10
2023-01-26T01:59:55.508Z,7.10
2023-01-26T02:01:57.241Z,7.10
2023-01-26T02:04:01.130Z,7.10
2023-01-26T02:06:07.107Z,7.10
2023-01-26T02:08:09.734Z,7.10
2023-01-26T02:10:20.417Z,7.10
2023-01-26T02:12:23.844Z,7.10
2023-01-26T02:14:27.017Z,7.10
2023-01-26T02:16:29.440Z,7.10
2023-01-26T02:18:31.174Z,7.10
2023-01-26T02:20:42.747Z,7.10
2023-01-26T02:22:47.805Z,7.10
2023-01-26T02:24:51.696Z,7.10
2023-01-26T02:26:54.538Z,7.00
2023-01-26T02:28:56.704Z,7.00
2023-01-26T02:30:58.844Z,7.00
2023-01-26T02:33:01.000Z,7.00
2023-01-26T02:35:02.828Z,7.00
2023-01-26T02:37:04.534Z,7.00
2023-01-26T02:39:15.324Z,7.00
2023-01-26T02:41:36.280Z,7.10
2023-01-26T02:43:38.015Z,7.00
2023-01-26T02:45:41.068Z,7.00
2023-01-26T02:47:44.861Z,7.00
2023-01-26T02:49:52.447Z,7.00
2023-01-26T02:51:55.797Z,7.00
2023-01-26T02:53:57.443Z,7.00
2023-01-26T02:55:59.366Z,7.00
2023-01-26T02:58:02.088Z,7.00
2023-01-26T03:00:15.986Z,7.00
2023-01-26T03:02:17.796Z,7.00
2023-01-26T03:04:19.432Z,7.00
2023-01-26T03:06:21.152Z,7.00
2023-01-26T03:08:22.788Z,7.00
2023-01-26T03:10:25.300Z,7.00
2023-01-26T03:12:27.562Z,7.00
2023-01-26T03:14:29.230Z,7.00
2023-01-26T03:16:30.971Z,7.00
2023-01-26T03:18:51.959Z,7.10
2023-01-26T03:21:16.721Z,7.00
2023-01-26T03:23:36.827Z,7.00
2023-01-26T03:25:57.546Z,7.00
2023-01-26T03:27:59.724Z,7.00
2023-01-26T03:30:02.318Z,7.00
2023-01-26T03:32:04.635Z,7.00
2023-01-26T03:34:06.504Z,7.00
2023-01-26T03:36:09.525Z,7.00
2023-01-26T03:38:11.397Z,7.00
2023-01-26T03:40:41.229Z,7.00
2023-01-26T03:43:01.615Z,7.00
2023-01-26T03:45:23.588Z,7.00
2023-01-26T03:47:44.159Z,7.00
2023-01-26T03:50:04.248Z,7.00
2023-01-26T03:52:24.452Z,7.00
2023-01-26T03:54:44.483Z,7.00
2023-01-26T03:56:46.339Z,7.00
2023-01-26T03:58:51.543Z,7.00
2023-01-26T04:00:53.688Z,6.90
2023-01-26T04:03:14.414Z,6.90
2023-01-26T04:05:34.482Z,6.90
2023-01-26T04:07:56.595Z,6.90
2023-01-26T04:09:58.837Z,6.90
2023-01-26T04:12:00.549Z,6.90
2023-01-26T04:14:21.166Z,6.90
2023-01-26T04:16:41.418Z,6.80
2023-01-26T04:19:02.108Z,6.80
2023-01-26T04:21:24.295Z,6.80
2023-01-26T04:23:26.690Z,6.80
2023-01-26T04:25:28.438Z,6.80
2023-01-26T04:27:35.008Z,6.80
2023-01-26T04:29:37.963Z,6.80
2023-01-26T04:31:40.537Z,6.80
2023-01-26T04:33:42.859Z,6.80
2023-01-26T04:35:44.656Z,6.80
2023-01-26T04:37:47.302Z,6.80
2023-01-26T04:39:48.932Z,6.80
2023-01-26T04:41:51.293Z,6.80
2023-01-26T04:43:54.601Z,6.80
2023-01-26T04:45:59.838Z,6.80
2023-01-26T04:48:01.757Z,6.80
2023-01-26T04:50:03.569Z,6.80
2023-01-26T04:52:06.575Z,6.80
2023-01-26T04:54:09.474Z,6.80
2023-01-26T04:56:25.371Z,6.80
2023-01-26T04:58:28.103Z,6.80
2023-01-26T05:00:30.424Z,6.80
2023-01-26T05:02:33.271Z,6.80
2023-01-26T05:04:35.055Z,6.80
2023-01-26T05:06:38.192Z,6.80
2023-01-26T05:08:40.332Z,6.80
2023-01-26T05:10:43.544Z,6.80
2023-01-26T05:13:00.625Z,6.80
2023-01-26T05:15:30.789Z,6.90
2023-01-26T05:17:57.631Z,6.80
2023-01-26T05:20:15.056Z,6.80
2023-01-26T05:22:35.258Z,6.80
2023-01-26T05:24:55.520Z,6.80
2023-01-26T05:27:22.547Z,6.80
2023-01-26T05:29:27.247Z,6.80
2023-01-26T05:31:28.943Z,6.80
2023-01-26T05:33:30.740Z,6.80
2023-01-26T05:35:34.518Z,6.80
2023-01-26T05:37:36.375Z,6.80
2023-01-26T05:39:38.148Z,6.80
2023-01-26T05:41:41.667Z,6.80
2023-01-26T05:43:45.913Z,6.80
2023-01-26T05:46:07.649Z,6.80
2023-01-26T05:48:09.375Z,6.70
2023-01-26T05:50:12.532Z,6.70
2023-01-26T05:52:16.636Z,6.70
2023-01-26T05:54:18.445Z,6.70
2023-01-26T05:56:20.551Z,6.70
2023-01-26T05:58:27.351Z,6.70
2023-01-26T06:00:29.059Z,6.70
2023-01-26T06:02:38.649Z,6.70
2023-01-26T06:04:40.411Z,6.70
2023-01-26T06:06:42.667Z,6.70
2023-01-26T06:09:05.370Z,6.70
2023-01-26T06:11:07.152Z,6.70
2023-01-26T06:13:35.719Z,6.70
2023-01-26T06:15:50.094Z,6.70
2023-01-26T06:17:51.798Z,6.70
2023-01-26T06:19:54.273Z,6.70
2023-01-26T06:21:55.970Z,6.70
2023-01-26T06:23:57.991Z,6.60
2023-01-26T06:26:00.603Z,6.60
2023-01-26T06:28:03.894Z,6.70
2023-01-26T06:30:06.528Z,6.70
2023-01-26T06:32:12.433Z,6.70
2023-01-26T06:34:14.368Z,6.70
2023-01-26T06:36:17.470Z,6.70
2023-01-26T06:38:21.994Z,6.70
2023-01-26T06:40:23.837Z,6.70
2023-01-26T06:42:25.651Z,6.70
2023-01-26T06:44:27.363Z,6.70
2023-01-26T06:46:29.148Z,6.70
2023-01-26T06:48:32.547Z,6.70
2023-01-26T06:50:35.508Z,6.70
2023-01-26T06:52:37.302Z,6.70
2023-01-26T06:54:54.095Z,6.70
2023-01-26T06:57:01.586Z,6.70
2023-01-26T06:59:26.494Z,6.70
2023-01-26T07:01:48.717Z,6.70
2023-01-26T07:03:54.203Z,6.70
2023-01-26T07:05:58.762Z,6.70
2023-01-26T07:08:02.360Z,6.70
2023-01-26T07:10:06.722Z,6.70
2023-01-26T07:12:11.548Z,6.70
2023-01-26T07:14:13.172Z,6.70
2023-01-26T07:16:15.753Z,6.70
2023-01-26T07:18:17.428Z,6.70
2023-01-26T07:20:19.078Z,6.70
2023-01-26T07:22:20.713Z,6.70
2023-01-26T07:24:22.426Z,6.70
2023-01-26T07:26:24.157Z,6.70
2023-01-26T07:28:26.044Z,6.70
2023-01-26T07:30:27.703Z,6.70
2023-01-26T07:32:29.346Z,6.70
2023-01-26T07:34:31.011Z,6.70
2023-01-26T07:36:32.681Z,6.70
2023-01-26T07:38:34.614Z,6.70
2023-01-26T07:40:36.299Z,6.80
2023-01-26T07:42:38.135Z,6.70
2023-01-26T07:44:54.042Z,6.80
2023-01-26T07:46:55.797Z,6.80
2023-01-26T07:48:58.339Z,6.80
2023-01-26T07:51:01.026Z,6.80
2023-01-26T07:53:02.646Z,6.80
2023-01-26T07:55:04.528Z,6.80
2023-01-26T07:57:08.848Z,6.80
2023-01-26T07:59:11.369Z,6.80
2023-01-26T08:01:13.879Z,6.80
2023-01-26T08:03:15.638Z,6.80
2023-01-26T08:05:17.335Z,6.80
2023-01-26T08:07:19.058Z,6.80
2023-01-26T08:09:20.797Z,6.80
2023-01-26T08:11:24.372Z,6.80
2023-01-26T08:13:35.430Z,6.80
2023-01-26T08:15:37.821Z,6.80
2023-01-26T08:17:39.485Z,6.80
2023-01-26T08:19:41.125Z,6.80
2023-01-26T08:21:42.830Z,6.80
2023-01-26T08:23:48.065Z,6.80
2023-01-26T08:25:49.828Z,6.80
2023-01-26T08:27:51.490Z,6.80
2023-01-26T08:29:53.172Z,6.80
2023-01-26T08:31:55.148Z,6.80
2023-01-26T08:33:56.869Z,6.80
2023-01-26T08:36:02.307Z,6.80
2023-01-26T08:38:04.344Z,6.80
2023-01-26T08:40:06.493Z,6.80
2023-01-26T08:42:08.191Z,6.80
2023-01-26T08:44:10.303Z,6.80
2023-01-26T08:46:12.177Z,6.80
2023-01-26T08:48:13.898Z,6.80
2023-01-26T08:50:15.577Z,6.90
2023-01-26T08:52:17.490Z,6.90
2023-01-26T08:54:19.222Z,6.90
2023-01-26T08:56:21.267Z,6.90
2023-01-26T08:58:22.938Z,6.90
2023-01-26T09:00:25.020Z,6.90
2023-01-26T09:02:26.826Z,6.90
2023-01-26T09:04:28.596Z,6.90
2023-01-26T09:06:32.973Z,6.90
2023-01-26T09:08:34.689Z,6.90
2023-01-26T09:10:39.557Z,6.90
2023-01-26T09:12:41.355Z,6.90
2023-01-26T09:14:43.057Z,6.90
2023-01-26T09:16:44.776Z,6.90
2023-01-26T09:18:49.148Z,6.90
2023-01-26T09:20:51.255Z,6.90
2023-01-26T09:22:52.902Z,6.90
2023-01-26T09:24:54.587Z,6.90
2023-01-26T09:26:56.848Z,6.90
2023-01-26T09:28:58.545Z,6.90
2023-01-26T09:31:06.627Z,6.90
2023-01-26T09:33:08.363Z,6.90
2023-01-26T09:35:14.151Z,6.90
2023-01-26T09:37:16.669Z,6.90
2023-01-26T09:39:18.401Z,6.90
2023-01-26T09:41:29.520Z,6.80
2023-01-26T09:43:45.141Z,6.80
2023-01-26T09:46:07.140Z,6.80
2023-01-26T09:48:08.856Z,6.80
2023-01-26T09:50:13.555Z,6.80
2023-01-26T09:52:23.233Z,6.80
2023-01-26T09:54:45.155Z,6.80
2023-01-26T09:56:48.986Z,6.70
2023-01-26T09:59:12.943Z,6.70
2023-01-26T10:01:18.490Z,6.70
2023-01-26T10:03:31.168Z,6.70
2023-01-26T10:05:45.739Z,6.70
2023-01-26T10:07:47.432Z,6.70
2023-01-26T10:09:50.340Z,6.70
2023-01-26T10:12:00.449Z,6.70
2023-01-26T10:14:07.381Z,6.70
2023-01-26T10:16:11.992Z,6.70
2023-01-26T10:18:18.866Z,6.70
2023-01-26T10:20:47.023Z,6.70
2023-01-26T10:22:50.458Z,6.70
2023-01-26T10:24:53.575Z,6.70
2023-01-26T10:26:57.575Z,6.70
2023-01-26T10:28:59.770Z,6.70
2023-01-26T10:31:02.705Z,6.70
2023-01-26T10:33:06.460Z,6.70
2023-01-26T10:35:14.982Z,6.70
2023-01-26T10:37:24.281Z,6.70
2023-01-26T10:39:26.188Z,6.70
2023-01-26T10:41:28.652Z,6.70
2023-01-26T10:43:35.819Z,6.60
2023-01-26T10:45:44.221Z,6.60
2023-01-26T10:48:01.832Z,6.60
2023-01-26T10:50:14.117Z,6.70
2023-01-26T10:52:18.807Z,6.70
2023-01-26T10:54:20.549Z,6.70
2023-01-26T10:56:22.295Z,6.70
2023-01-26T10:58:42.672Z,6.70
2023-01-26T11:00:44.345Z,6.70
2023-01-26T11:02:50.849Z,6.70
2023-01-26T11:05:15.193Z,6.70
2023-01-26T11:07:32.772Z,6.80
2023-01-26T11:09:34.453Z,6.80
2023-01-26T11:11:36.175Z,6.80
2023-01-26T11:13:37.940Z,6.80
2023-01-26T11:15:41.176Z,6.80
2023-01-26T11:17:42.826Z,6.80
2023-01-26T11:20:03.237Z,6.70
2023-01-26T11:22:37.233Z,6.70
2023-01-26T11:24:55.389Z,6.70
2023-01-26T11:27:09.301Z,6.70
2023-01-26T11:29:29.768Z,6.70
2023-01-26T11:31:39.461Z,6.70
2023-01-26T11:33:51.201Z,6.70
2023-01-26T11:36:02.051Z,6.70
2023-01-26T11:38:06.684Z,6.70
2023-01-26T11:40:17.183Z,6.70
2023-01-26T11:42:24.679Z,6.70
2023-01-26T11:44:32.875Z,6.70
2023-01-26T11:46:41.429Z,6.80
2023-01-26T11:48:46.317Z,6.80
2023-01-26T11:50:54.945Z,6.80
2023-01-26T11:52:59.573Z,6.80
2023-01-26T11:55:07.174Z,6.80
2023-01-26T11:57:14.798Z,6.80
2023-01-26T11:59:19.264Z,6.80
2023-01-26T12:01:22.770Z,6.80
2023-01-26T12:03:24.457Z,6.80
2023-01-26T12:05:28.243Z,6.80
2023-01-26T12:07:56.231Z,6.80
2023-01-26T12:10:00.159Z,6.80
2023-01-26T12:12:05.657Z,6.80
2023-01-26T12:14:14.408Z,6.80
2023-01-26T12:16:30.628Z,6.80
2023-01-26T12:18:53.299Z,6.80
2023-01-26T12:21:02.917Z,6.80
2023-01-26T12:23:06.195Z,6.80
2023-01-26T12:25:19.369Z,6.80
2023-01-26T12:27:34.805Z,6.80
2023-01-26T12:29:42.850Z,6.80
2023-01-26T12:31:44.857Z,6.80
2023-01-26T12:33:47.211Z,6.80
2023-01-26T12:36:00.478Z,6.80
2023-01-26T12:38:17.973Z,6.80
2023-01-26T12:40:20.153Z,6.80
2023-01-26T12:42:21.769Z,6.80
2023-01-26T12:44:29.579Z,6.80
2023-01-26T12:46:32.575Z,6.80
2023-01-26T12:48:46.822Z,6.80
2023-01-26T12:50:59.264Z,6.80
2023-01-26T12:53:05.297Z,6.80
2023-01-26T12:55:14.254Z,6.70
2023-01-26T12:57:18.994Z,6.70
2023-01-26T12:59:46.545Z,6.70
2023-01-26T13:01:50.275Z,6.70
2023-01-26T13:03:54.039Z,6.70
2023-01-26T13:05:55.790Z,6.70
2023-01-26T13:07:57.721Z,6.60
2023-01-26T13:10:15.239Z,6.60
2023-01-26T13:12:35.707Z,6.60
2023-01-26T13:14:37.455Z,6.70
2023-01-26T13:16:39.279Z,6.60
2023-01-26T13:18:54.338Z,6.60
2023-01-26T13:20:56.075Z,6.60
2023-01-26T13:22:57.942Z,6.60
2023-01-26T13:25:12.251Z,6.60
2023-01-26T13:27:46.684Z,6.70
2023-01-26T13:29:57.406Z,6.70
2023-01-26T13:32:01.121Z,6.70
2023-01-26T13:34:06.385Z,6.70
2023-01-26T13:36:16.085Z,6.70
2023-01-26T13:38:35.406Z,6.70
2023-01-26T13:40:38.060Z,6.70
2023-01-26T13:43:00.040Z,6.70
2023-01-26T13:45:07.643Z,6.70
2023-01-26T13:47:12.587Z,6.80
2023-01-26T13:49:25.360Z,6.70
2023-01-26T13:51:28.532Z,6.80
2023-01-26T13:53:43.574Z,6.70
2023-01-26T13:55:57.844Z,6.70
2023-01-26T13:58:11.571Z,6.70
2023-01-26T14:00:14.201Z,6.70
2023-01-26T14:02:22.695Z,6.70
2023-01-26T14:04:24.394Z,6.70
2023-01-26T14:06:26.668Z,6.70
2023-01-26T14:08:29.812Z,6.70
2023-01-26T14:10:31.598Z,6.70
2023-01-26T14:12:33.414Z,6.70
2023-01-26T14:14:36.337Z,6.70
2023-01-26T14:16:38.115Z,6.70
2023-01-26T14:18:40.330Z,6.70
2023-01-26T14:20:42.158Z,6.70
2023-01-26T14:22:43.995Z,6.70
2023-01-26T14:24:49.642Z,6.70
2023-01-26T14:26:51.460Z,6.70
2023-01-26T14:28:53.184Z,6.60
2023-01-26T14:31:02.938Z,6.60
2023-01-26T14:33:12.902Z,6.60
2023-01-26T14:35:24.859Z,6.60
2023-01-26T14:37:27.480Z,6.60
2023-01-26T14:39:29.102Z,6.70
2023-01-26T14:41:31.922Z,6.60
2023-01-26T14:43:33.642Z,6.60
2023-01-26T14:45:35.555Z,6.60
2023-01-26T14:47:37.301Z,6.70
2023-01-26T14:49:43.311Z,6.70
2023-01-26T14:51:45.467Z,6.70
2023-01-26T14:53:55.465Z,6.70
2023-01-26T14:55:57.498Z,6.70
2023-01-26T14:58:00.906Z,6.70
2023-01-26T15:00:08.929Z,6.70
2023-01-26T15:02:13.570Z,6.70
2023-01-26T15:04:27.195Z,6.70
2023-01-26T15:06:29.633Z,6.70
2023-01-26T15:08:31.700Z,6.70
2023-01-26T15:10:33.438Z,6.70
2023-01-26T15:12:35.552Z,6.70
2023-01-26T15:14:47.173Z,6.70
2023-01-26T15:16:53.004Z,6.70
2023-01-26T15:19:01.782Z,6.70
2023-01-26T15:21:14.593Z,6.70
2023-01-26T15:23:22.369Z,6.70
2023-01-26T15:25:28.869Z,6.60
2023-01-26T15:27:31.537Z,6.60
2023-01-26T15:29:33.984Z,6.60
2023-01-26T15:31:41.504Z,6.60
2023-01-26T15:33:49.644Z,6.60
2023-01-26T15:35:58.468Z,6.60
2023-01-26T15:38:00.246Z,6.50
2023-01-26T15:40:02.151Z,6.50
2023-01-26T15:42:14.040Z,6.50
2023-01-26T15:44:17.072Z,6.50
2023-01-26T15:46:18.900Z,6.50
2023-01-26T15:48:21.352Z,6.50
2023-01-26T15:50:28.085Z,6.50
2023-01-26T15:52:30.675Z,6.40
2023-01-26T15:54:32.440Z,6.40
2023-01-26T15:56:34.257Z,6.40
2023-01-26T15:58:36.749Z,6.40
2023-01-26T16:00:38.887Z,6.40
2023-01-26T16:02:40.751Z,6.40
2023-01-26T16:04:42.823Z,6.40
2023-01-26T16:06:44.478Z,6.30
2023-01-26T16:08:46.244Z,6.30
2023-01-26T16:10:48.096Z,6.30
2023-01-26T16:12:50.841Z,6.30
2023-01-26T16:14:52.538Z,6.30
2023-01-26T16:16:54.221Z,6.30
2023-01-26T16:18:56.046Z,6.30
2023-01-26T16:20:57.770Z,6.30
2023-01-26T16:22:59.431Z,6.30
2023-01-26T16:25:01.154Z,6.30
2023-01-26T16:27:02.921Z,6.20
2023-01-26T16:29:04.728Z,6.30
2023-01-26T16:31:16.916Z,6.30
2023-01-26T16:33:22.525Z,6.30
2023-01-26T16:35:25.960Z,6.20
2023-01-26T16:37:27.728Z,6.20
2023-01-26T16:39:29.418Z,6.20
2023-01-26T16:41:32.352Z,6.20
2023-01-26T16:43:34.093Z,6.30
2023-01-26T16:45:35.857Z,6.30
2023-01-26T16:47:37.622Z,6.20
2023-01-26T16:49:39.351Z,6.20
2023-01-26T16:51:42.645Z,6.20
2023-01-26T16:53:44.439Z,6.30
2023-01-26T16:55:46.256Z,6.30
2023-01-26T16:57:49.940Z,6.20
2023-01-26T16:59:51.844Z,6.30
2023-01-26T17:01:53.647Z,6.20
2023-01-26T17:03:58.505Z,6.20
2023-01-26T17:06:00.272Z,6.30
2023-01-26T17:08:01.951Z,6.20
2023-01-26T17:10:04.001Z,6.20
2023-01-26T17:12:08.301Z,6.20
2023-01-26T17:14:11.412Z,6.20
2023-01-26T17:16:18.658Z,6.20
2023-01-26T17:18:20.336Z,6.20
2023-01-26T17:20:22.236Z,6.20
2023-01-26T17:22:23.934Z,6.20
2023-01-26T17:24:25.636Z,6.20
2023-01-26T17:26:27.388Z,6.20
2023-01-26T17:28:29.128Z,6.20
2023-01-26T17:30:31.032Z,6.20
2023-01-26T17:32:32.944Z,6.10
2023-01-26T17:34:34.656Z,6.10
2023-01-26T17:36:36.500Z,6.10
2023-01-26T17:38:38.253Z,6.10
2023-01-26T17:40:39.975Z,6.10
2023-01-26T17:42:41.675Z,6.10
2023-01-26T17:44:43.394Z,6.10
2023-01-26T17:46:45.255Z,6.10
2023-01-26T17:48:47.608Z,6.10
2023-01-26T17:50:50.058Z,6.10
2023-01-26T17:52:51.935Z,6.10
2023-01-26T17:54:53.726Z,6.10
2023-01-26T17:56:55.617Z,6.10
2023-01-26T17:58:57.416Z,6.10
2023-01-26T18:00:59.261Z,6.10
2023-01-26T18:03:00.944Z,6.10
2023-01-26T18:05:03.102Z,6.10
2023-01-26T18:07:04.921Z,6.00
2023-01-26T18:09:06.665Z,6.10
2023-01-26T18:11:09.926Z,6.00
2023-01-26T18:13:11.666Z,6.10
2023-01-26T18:15:13.604Z,6.00
2023-01-26T18:17:15.457Z,6.00
2023-01-26T18:19:17.167Z,6.10
2023-01-26T18:21:20.041Z,6.00
2023-01-26T18:23:22.371Z,6.10
2023-01-26T18:25:24.273Z,6.10
2023-01-26T18:27:26.099Z,6.00
2023-01-26T18:29:27.812Z,6.10
2023-01-26T18:31:31.142Z,6.10
2023-01-26T18:33:32.841Z,6.10
2023-01-26T18:35:34.771Z,6.10
2023-01-26T18:37:36.462Z,6.10
2023-01-26T18:39:38.571Z,6.10
2023-01-26T18:41:40.864Z,6.10
2023-01-26T18:43:42.851Z,6.00
2023-01-26T18:45:44.513Z,6.10
2023-01-26T18:47:46.334Z,6.10
2023-01-26T18:49:48.053Z,6.10
2023-01-26T18:51:50.688Z,6.10
2023-01-26T18:53:52.814Z,6.10
2023-01-26T18:56:08.015Z,6.10
2023-01-26T18:58:09.774Z,6.10
2023-01-26T19:00:13.872Z,6.10
2023-01-26T19:02:15.767Z,6.10
2023-01-26T19:04:18.445Z,6.10
2023-01-26T19:06:20.703Z,6.10
2023-01-26T19:08:25.111Z,6.10
2023-01-26T19:10:26.835Z,6.10
2023-01-26T19:12:28.516Z,6.10
2023-01-26T19:14:32.298Z,6.10
2023-01-26T19:16:34.127Z,6.10
2023-01-26T19:18:36.366Z,6.10
2023-01-26T19:20:47.875Z,6.10
2023-01-26T19:23:01.774Z,6.10
2023-01-26T19:25:04.141Z,6.10
2023-01-26T19:27:06.313Z,6.10
2023-01-26T19:29:10.197Z,6.10
2023-01-26T19:31:12.624Z,6.10
2023-01-26T19:33:29.103Z,6.10
2023-01-26T19:35:36.505Z,6.10
2023-01-26T19:37:38.367Z,6.10
2023-01-26T19:39:40.452Z,6.10
2023-01-26T19:41:42.608Z,6.10
2023-01-26T19:43:44.732Z,6.10
2023-01-26T19:45:47.852Z,6.10
2023-01-26T19:50:14.253Z,6.10
2023-01-26T19:52:16.702Z,6.10
2023-01-26T19:54:19.050Z,6.10
2023-01-26T19:56:25.025Z,6.10
2023-01-26T19:58:27.599Z,6.10
2023-01-26T20:00:29.457Z,6.10
2023-01-26T20:02:31.342Z,6.10
2023-01-26T20:04:33.124Z,6.10
2023-01-26T20:06:38.492Z,6.10
2023-01-26T20:08:40.453Z,6.10
2023-01-26T20:10:42.465Z,6.20
2023-01-26T20:12:44.663Z,6.20
2023-01-26T20:14:48.925Z,6.20
2023-01-26T20:16:50.792Z,6.20
2023-01-26T20:18:52.521Z,6.20
2023-01-26T20:21:00.622Z,6.20
2023-01-26T20:23:02.745Z,6.20
2023-01-26T20:25:06.987Z,6.20
2023-01-26T20:27:09.888Z,6.20
2023-01-26T20:29:18.315Z,6.20
2023-01-26T20:31:21.802Z,6.20
2023-01-26T20:33:34.442Z,6.20
2023-01-26T20:35:42.854Z,6.20
2023-01-26T20:37:44.758Z,6.30
2023-01-26T20:39:47.034Z,6.30
2023-01-26T20:41:52.340Z,6.30
2023-01-26T20:44:00.504Z,6.30
2023-01-26T20:46:10.295Z,6.30
2023-01-26T20:48:12.091Z,6.30
2023-01-26T20:50:15.205Z,6.30
2023-01-26T20:52:20.145Z,6.30
2023-01-26T20:54:22.709Z,6.30
2023-01-26T20:56:27.762Z,6.30
2023-01-26T20:58:29.484Z,6.30
2023-01-26T21:00:31.528Z,6.30
2023-01-26T21:02:35.713Z,6.30
2023-01-26T21:04:37.424Z,6.30
2023-01-26T21:06:42.640Z,6.30
2023-01-26T21:08:45.049Z,6.30
2023-01-26T21:10:46.903Z,6.30
2023-01-26T21:12:48.731Z,6.30
2023-01-26T21:14:50.530Z,6.30
2023-01-26T21:16:54.502Z,6.30
2023-01-26T21:18:56.405Z,6.30
2023-01-26T21:20:58.838Z,6.30
2023-01-26T21:23:00.697Z,6.30
2023-01-26T21:25:03.940Z,6.30
2023-01-26T21:27:06.771Z,6.30
2023-01-26T21:29:11.097Z,6.30
2023-01-26T21:31:13.998Z,6.30
2023-01-26T21:33:18.523Z,6.30
2023-01-26T21:35:23.314Z,6.30
2023-01-26T21:37:25.108Z,6.30
2023-01-26T21:39:26.923Z,6.30
2023-01-26T21:41:48.432Z,6.30
2023-01-26T21:43:53.728Z,6.30
2023-01-26T21:45:56.530Z,6.30
2023-01-26T21:48:17.068Z,6.30
2023-01-26T21:50:38.712Z,6.30
2023-01-26T21:52:58.524Z,6.30
2023-01-26T21:55:00.296Z,6.30
2023-01-26T21:57:02.644Z,6.30
2023-01-26T21:59:08.196Z,6.40
2023-01-26T22:01:10.499Z,6.30
2023-01-26T22:03:13.638Z,6.30
2023-01-26T22:05:16.676Z,6.30
2023-01-26T22:07:18.366Z,6.30
2023-01-26T22:09:21.340Z,6.30
2023-01-26T22:11:23.078Z,6.30
2023-01-26T22:13:25.279Z,6.30
2023-01-26T22:15:27.054Z,6.30
2023-01-26T22:17:28.777Z,6.30
2023-01-26T22:19:30.481Z,6.30
2023-01-26T22:21:32.980Z,6.30
2023-01-26T22:23:36.333Z,6.30
2023-01-26T22:25:41.438Z,6.30
2023-01-26T22:27:43.354Z,6.30
2023-01-26T22:29:45.166Z,6.30
2023-01-26T22:31:46.900Z,6.40
2023-01-26T22:33:49.296Z,6.40
2023-01-26T22:35:58.205Z,6.40
2023-01-26T22:37:59.977Z,6.40
2023-01-26T22:40:02.055Z,6.40
2023-01-26T22:42:03.841Z,6.40
2023-01-26T22:44:05.726Z,6.40
2023-01-26T22:46:09.119Z,6.40
2023-01-26T22:48:10.869Z,6.40
2023-01-26T22:50:12.795Z,6.40
2023-01-26T22:52:14.626Z,6.40
2023-01-26T22:54:16.266Z,6.40
2023-01-26T22:56:18.954Z,6.40
2023-01-26T22:58:20.655Z,6.40
2023-01-26T23:00:22.382Z,6.40
2023-01-26T23:02:24.080Z,6.40
2023-01-26T23:04:25.770Z,6.40
2023-01-26T23:06:27.987Z,6.40
2023-01-26T23:08:30.235Z,6.40
2023-01-26T23:10:31.963Z,6.40
2023-01-26T23:12:33.677Z,6.40
2023-01-26T23:14:35.433Z,6.40
2023-01-26T23:16:37.156Z,6.40
2023-01-26T23:18:39.262Z,6.40
2023-01-26T23:20:40.948Z,6.40
2023-01-26T23:22:42.761Z,6.40
2023-01-26T23:25:04.482Z,6.40
2023-01-26T23:27:06.177Z,6.40
2023-01-26T23:29:07.859Z,6.40
2023-01-26T23:31:10.701Z,6.40
2023-01-26T23:33:12.611Z,6.40
2023-01-26T23:35:14.473Z,6.40
2023-01-26T23:37:16.202Z,6.40
2023-01-26T23:39:17.906Z,6.40
2023-01-26T23:41:19.768Z,6.40
2023-01-26T23:43:21.605Z,6.50
2023-01-26T23:45:23.262Z,6.40
2023-01-26T23:47:24.985Z,6.40
2023-01-26T23:49:26.771Z,6.40
2023-01-26T23:51:28.513Z,6.40
2023-01-26T23:53:30.657Z,6.40
2023-01-26T23:55:32.704Z,6.40
2023-01-26T23:57:36.031Z,6.40
2023-01-26T23:59:37.675Z,6.40
